sensor_id;sensor_type;location;lat;lon;timestamp;P1;durP1;ratioP1;P2;durP2;ratioP2
10007;SDS011;5043;41.766;26.204;2024-03-22T00:01:45;7.00;;;6.10;;
10007;SDS011;5043;41.766;26.204;2024-03-22T00:04:11;8.25;;;6.30;;
10007;SDS011;5043;41.766;26.204;2024-03-22T00:06:37;9.27;;;6.30;;
10007;SDS011;5043;41.766;26.204;2024-03-22T00:09:03;6.30;;;5.70;;
10007;SDS011;5043;41.766;26.204;2024-03-22T00:11:29;6.88;;;6.05;;
10007;SDS011;5043;41.766;26.204;2024-03-22T00:13:54;8.05;;;6.63;;
10007;SDS011;5043;41.766;26.204;2024-03-22T00:16:20;9.57;;;6.20;;
10007;SDS011;5043;41.766;26.204;2024-03-22T00:18:45;6.45;;;5.85;;
10007;SDS011;5043;41.766;26.204;2024-03-22T00:21:11;8.00;;;5.90;;
10007;SDS011;5043;41.766;26.204;2024-03-22T00:23:36;6.72;;;6.07;;
10007;SDS011;5043;41.766;26.204;2024-03-22T00:26:02;6.18;;;5.57;;
10007;SDS011;5043;41.766;26.204;2024-03-22T00:28:27;6.57;;;5.80;;
10007;SDS011;5043;41.766;26.204;2024-03-22T00:30:53;12.10;;;6.82;;
10007;SDS011;5043;41.766;26.204;2024-03-22T00:33:18;10.32;;;7.15;;
10007;SDS011;5043;41.766;26.204;2024-03-22T00:35:44;7.00;;;5.97;;
10007;SDS011;5043;41.766;26.204;2024-03-22T00:38:09;8.10;;;5.78;;
10007;SDS011;5043;41.766;26.204;2024-03-22T00:40:34;7.03;;;6.25;;
10007;SDS011;5043;41.766;26.204;2024-03-22T00:43:00;5.90;;;5.30;;
10007;SDS011;5043;41.766;26.204;2024-03-22T00:45:25;8.48;;;6.05;;
10007;SDS011;5043;41.766;26.204;2024-03-22T00:47:51;6.18;;;5.57;;
10007;SDS011;5043;41.766;26.204;2024-03-22T00:50:16;6.43;;;5.75;;
10007;SDS011;5043;41.766;26.204;2024-03-22T00:52:41;9.20;;;7.45;;
10007;SDS011;5043;41.766;26.204;2024-03-22T00:55:07;6.93;;;6.18;;
10007;SDS011;5043;41.766;26.204;2024-03-22T00:57:33;8.00;;;5.72;;
10007;SDS011;5043;41.766;26.204;2024-03-22T00:59:58;5.93;;;5.32;;
10007;SDS011;5043;41.766;26.204;2024-03-22T01:02:24;6.82;;;5.22;;
10007;SDS011;5043;41.766;26.204;2024-03-22T01:04:50;5.65;;;4.75;;
10007;SDS011;5043;41.766;26.204;2024-03-22T01:07:15;5.55;;;4.93;;
10007;SDS011;5043;41.766;26.204;2024-03-22T01:09:41;7.78;;;5.50;;
10007;SDS011;5043;41.766;26.204;2024-03-22T01:12:09;5.80;;;5.22;;
10007;SDS011;5043;41.766;26.204;2024-03-22T01:14:35;5.60;;;4.65;;
10007;SDS011;5043;41.766;26.204;2024-03-22T01:17:00;4.60;;;4.18;;
10007;SDS011;5043;41.766;26.204;2024-03-22T01:19:25;7.53;;;4.50;;
10007;SDS011;5043;41.766;26.204;2024-03-22T01:21:51;5.03;;;4.15;;
10007;SDS011;5043;41.766;26.204;2024-03-22T01:24:16;5.32;;;4.82;;
10007;SDS011;5043;41.766;26.204;2024-03-22T01:26:42;5.88;;;5.25;;
10007;SDS011;5043;41.766;26.204;2024-03-22T01:29:08;5.88;;;5.25;;
10007;SDS011;5043;41.766;26.204;2024-03-22T01:31:33;7.70;;;5.47;;
10007;SDS011;5043;41.766;26.204;2024-03-22T01:33:58;5.72;;;5.13;;
10007;SDS011;5043;41.766;26.204;2024-03-22T01:36:24;6.07;;;5.25;;
10007;SDS011;5043;41.766;26.204;2024-03-22T01:38:49;5.55;;;4.15;;
10007;SDS011;5043;41.766;26.204;2024-03-22T01:41:14;5.90;;;4.53;;
10007;SDS011;5043;41.766;26.204;2024-03-22T01:43:40;5.38;;;4.35;;
10007;SDS011;5043;41.766;26.204;2024-03-22T01:46:05;11.07;;;5.82;;
10007;SDS011;5043;41.766;26.204;2024-03-22T01:48:33;7.72;;;5.70;;
10007;SDS011;5043;41.766;26.204;2024-03-22T01:50:59;8.15;;;5.53;;
10007;SDS011;5043;41.766;26.204;2024-03-22T01:53:25;6.90;;;4.82;;
10007;SDS011;5043;41.766;26.204;2024-03-22T01:55:51;5.57;;;4.55;;
10007;SDS011;5043;41.766;26.204;2024-03-22T01:58:16;15.48;;;4.82;;
10007;SDS011;5043;41.766;26.204;2024-03-22T02:00:43;7.53;;;5.30;;
10007;SDS011;5043;41.766;26.204;2024-03-22T02:03:08;9.07;;;5.65;;
10007;SDS011;5043;41.766;26.204;2024-03-22T02:05:34;8.80;;;5.15;;
10007;SDS011;5043;41.766;26.204;2024-03-22T02:07:59;7.40;;;5.22;;
10007;SDS011;5043;41.766;26.204;2024-03-22T02:10:24;6.28;;;5.28;;
10007;SDS011;5043;41.766;26.204;2024-03-22T02:12:50;6.43;;;5.43;;
10007;SDS011;5043;41.766;26.204;2024-03-22T02:15:15;8.23;;;5.97;;
10007;SDS011;5043;41.766;26.204;2024-03-22T02:17:41;5.60;;;5.00;;
10007;SDS011;5043;41.766;26.204;2024-03-22T02:20:06;4.90;;;4.47;;
10007;SDS011;5043;41.766;26.204;2024-03-22T02:22:33;4.55;;;4.15;;
10007;SDS011;5043;41.766;26.204;2024-03-22T02:24:58;4.15;;;3.75;;
10007;SDS011;5043;41.766;26.204;2024-03-22T02:27:24;5.53;;;3.92;;
10007;SDS011;5043;41.766;26.204;2024-03-22T02:29:51;4.50;;;4.10;;
10007;SDS011;5043;41.766;26.204;2024-03-22T02:32:16;4.95;;;3.72;;
10007;SDS011;5043;41.766;26.204;2024-03-22T02:34:42;4.82;;;4.38;;
10007;SDS011;5043;41.766;26.204;2024-03-22T02:37:07;7.28;;;5.28;;
10007;SDS011;5043;41.766;26.204;2024-03-22T02:39:32;5.80;;;5.03;;
10007;SDS011;5043;41.766;26.204;2024-03-22T02:41:58;4.95;;;4.20;;
10007;SDS011;5043;41.766;26.204;2024-03-22T02:44:23;5.85;;;4.75;;
10007;SDS011;5043;41.766;26.204;2024-03-22T02:46:49;6.82;;;4.68;;
10007;SDS011;5043;41.766;26.204;2024-03-22T02:49:14;5.25;;;3.90;;
10007;SDS011;5043;41.766;26.204;2024-03-22T02:51:40;5.20;;;4.70;;
10007;SDS011;5043;41.766;26.204;2024-03-22T02:54:05;7.15;;;4.93;;
10007;SDS011;5043;41.766;26.204;2024-03-22T02:56:30;5.63;;;4.43;;
10007;SDS011;5043;41.766;26.204;2024-03-22T02:58:56;6.07;;;5.07;;
10007;SDS011;5043;41.766;26.204;2024-03-22T03:01:22;5.90;;;5.10;;
10007;SDS011;5043;41.766;26.204;2024-03-22T03:03:47;5.95;;;4.75;;
10007;SDS011;5043;41.766;26.204;2024-03-22T03:06:13;5.72;;;4.53;;
10007;SDS011;5043;41.766;26.204;2024-03-22T03:08:39;5.32;;;4.72;;
10007;SDS011;5043;41.766;26.204;2024-03-22T03:11:04;4.72;;;4.22;;
10007;SDS011;5043;41.766;26.204;2024-03-22T03:13:30;6.75;;;4.72;;
10007;SDS011;5043;41.766;26.204;2024-03-22T03:15:56;4.50;;;3.80;;
10007;SDS011;5043;41.766;26.204;2024-03-22T03:18:22;4.90;;;4.00;;
10007;SDS011;5043;41.766;26.204;2024-03-22T03:20:47;4.00;;;3.60;;
10007;SDS011;5043;41.766;26.204;2024-03-22T03:23:13;4.10;;;3.70;;
10007;SDS011;5043;41.766;26.204;2024-03-22T03:25:38;4.53;;;3.92;;
10007;SDS011;5043;41.766;26.204;2024-03-22T03:28:04;4.18;;;3.78;;
10007;SDS011;5043;41.766;26.204;2024-03-22T03:30:29;8.10;;;3.10;;
10007;SDS011;5043;41.766;26.204;2024-03-22T03:32:54;4.05;;;3.20;;
10007;SDS011;5043;41.766;26.204;2024-03-22T03:35:20;4.07;;;3.13;;
10007;SDS011;5043;41.766;26.204;2024-03-22T03:37:45;3.97;;;3.58;;
10007;SDS011;5043;41.766;26.204;2024-03-22T03:40:11;5.40;;;4.72;;
10007;SDS011;5043;41.766;26.204;2024-03-22T03:42:36;5.60;;;5.00;;
10007;SDS011;5043;41.766;26.204;2024-03-22T03:45:02;5.68;;;5.07;;
10007;SDS011;5043;41.766;26.204;2024-03-22T03:47:27;7.00;;;5.88;;
10007;SDS011;5043;41.766;26.204;2024-03-22T03:49:53;7.97;;;7.18;;
10007;SDS011;5043;41.766;26.204;2024-03-22T03:52:18;9.38;;;7.88;;
10007;SDS011;5043;41.766;26.204;2024-03-22T03:54:44;7.57;;;6.40;;
10007;SDS011;5043;41.766;26.204;2024-03-22T03:57:09;5.32;;;4.82;;
10007;SDS011;5043;41.766;26.204;2024-03-22T03:59:34;4.65;;;3.90;;
10007;SDS011;5043;41.766;26.204;2024-03-22T04:02:00;4.82;;;3.88;;
10007;SDS011;5043;41.766;26.204;2024-03-22T04:04:25;3.40;;;2.80;;
10007;SDS011;5043;41.766;26.204;2024-03-22T04:06:51;4.72;;;3.92;;
10007;SDS011;5043;41.766;26.204;2024-03-22T04:09:17;3.28;;;2.97;;
10007;SDS011;5043;41.766;26.204;2024-03-22T04:11:42;4.97;;;4.47;;
10007;SDS011;5043;41.766;26.204;2024-03-22T04:14:09;6.32;;;5.68;;
10007;SDS011;5043;41.766;26.204;2024-03-22T04:16:34;8.13;;;5.78;;
10007;SDS011;5043;41.766;26.204;2024-03-22T04:19:00;8.70;;;5.97;;
10007;SDS011;5043;41.766;26.204;2024-03-22T04:21:25;6.55;;;5.85;;
10007;SDS011;5043;41.766;26.204;2024-03-22T04:23:51;5.07;;;4.57;;
10007;SDS011;5043;41.766;26.204;2024-03-22T04:26:16;5.97;;;3.13;;
10007;SDS011;5043;41.766;26.204;2024-03-22T04:28:41;3.63;;;3.33;;
10007;SDS011;5043;41.766;26.204;2024-03-22T04:31:08;2.90;;;2.67;;
10007;SDS011;5043;41.766;26.204;2024-03-22T04:33:34;2.38;;;2.17;;
10007;SDS011;5043;41.766;26.204;2024-03-22T04:36:01;4.15;;;3.40;;
10007;SDS011;5043;41.766;26.204;2024-03-22T04:38:27;2.80;;;2.30;;
10007;SDS011;5043;41.766;26.204;2024-03-22T04:40:53;5.93;;;4.55;;
10007;SDS011;5043;41.766;26.204;2024-03-22T04:43:19;4.78;;;3.53;;
10007;SDS011;5043;41.766;26.204;2024-03-22T04:45:45;3.03;;;2.72;;
10007;SDS011;5043;41.766;26.204;2024-03-22T04:48:12;4.90;;;3.17;;
10007;SDS011;5043;41.766;26.204;2024-03-22T04:50:42;3.08;;;2.78;;
10007;SDS011;5043;41.766;26.204;2024-03-22T04:53:07;3.47;;;3.17;;
10007;SDS011;5043;41.766;26.204;2024-03-22T04:55:33;3.47;;;2.90;;
10007;SDS011;5043;41.766;26.204;2024-03-22T04:57:59;2.55;;;2.35;;
10007;SDS011;5043;41.766;26.204;2024-03-22T05:00:24;2.78;;;2.53;;
10007;SDS011;5043;41.766;26.204;2024-03-22T05:02:51;2.85;;;2.60;;
10007;SDS011;5043;41.766;26.204;2024-03-22T05:05:17;2.85;;;2.60;;
10007;SDS011;5043;41.766;26.204;2024-03-22T05:07:43;3.78;;;3.38;;
10007;SDS011;5043;41.766;26.204;2024-03-22T05:10:08;5.22;;;4.22;;
10007;SDS011;5043;41.766;26.204;2024-03-22T05:12:35;4.65;;;4.25;;
10007;SDS011;5043;41.766;26.204;2024-03-22T05:15:02;6.97;;;4.35;;
10007;SDS011;5043;41.766;26.204;2024-03-22T05:17:28;4.03;;;3.63;;
10007;SDS011;5043;41.766;26.204;2024-03-22T05:19:54;4.80;;;4.30;;
10007;SDS011;5043;41.766;26.204;2024-03-22T05:22:20;5.28;;;4.78;;
10007;SDS011;5043;41.766;26.204;2024-03-22T05:24:47;6.38;;;5.18;;
10007;SDS011;5043;41.766;26.204;2024-03-22T05:27:12;5.00;;;4.43;;
10007;SDS011;5043;41.766;26.204;2024-03-22T05:29:38;5.07;;;4.32;;
10007;SDS011;5043;41.766;26.204;2024-03-22T05:32:03;5.70;;;5.05;;
10007;SDS011;5043;41.766;26.204;2024-03-22T05:34:29;6.60;;;4.30;;
10007;SDS011;5043;41.766;26.204;2024-03-22T05:36:55;4.20;;;3.80;;
10007;SDS011;5043;41.766;26.204;2024-03-22T05:39:20;4.43;;;3.58;;
10007;SDS011;5043;41.766;26.204;2024-03-22T05:41:46;4.55;;;3.45;;
10007;SDS011;5043;41.766;26.204;2024-03-22T05:44:11;4.00;;;3.60;;
10007;SDS011;5043;41.766;26.204;2024-03-22T05:46:37;3.53;;;3.20;;
10007;SDS011;5043;41.766;26.204;2024-03-22T05:49:02;3.65;;;3.30;;
10007;SDS011;5043;41.766;26.204;2024-03-22T05:51:28;12.05;;;3.72;;
10007;SDS011;5043;41.766;26.204;2024-03-22T05:53:55;4.25;;;3.65;;
10007;SDS011;5043;41.766;26.204;2024-03-22T05:56:21;3.50;;;3.20;;
10007;SDS011;5043;41.766;26.204;2024-03-22T05:58:46;5.25;;;3.90;;
10007;SDS011;5043;41.766;26.204;2024-03-22T06:01:12;3.55;;;3.00;;
10007;SDS011;5043;41.766;26.204;2024-03-22T06:03:37;3.28;;;2.97;;
10007;SDS011;5043;41.766;26.204;2024-03-22T06:06:03;3.10;;;2.80;;
10007;SDS011;5043;41.766;26.204;2024-03-22T06:08:28;4.15;;;3.08;;
10007;SDS011;5043;41.766;26.204;2024-03-22T06:10:56;4.53;;;3.38;;
10007;SDS011;5043;41.766;26.204;2024-03-22T06:13:21;3.10;;;2.80;;
10007;SDS011;5043;41.766;26.204;2024-03-22T06:15:50;2.97;;;2.42;;
10007;SDS011;5043;41.766;26.204;2024-03-22T06:18:16;2.97;;;2.33;;
10007;SDS011;5043;41.766;26.204;2024-03-22T06:20:42;12.85;;;4.38;;
10007;SDS011;5043;41.766;26.204;2024-03-22T06:23:08;8.52;;;3.92;;
10007;SDS011;5043;41.766;26.204;2024-03-22T06:25:34;4.88;;;3.10;;
10007;SDS011;5043;41.766;26.204;2024-03-22T06:27:59;8.27;;;5.25;;
10007;SDS011;5043;41.766;26.204;2024-03-22T06:30:25;5.80;;;3.80;;
10007;SDS011;5043;41.766;26.204;2024-03-22T06:32:52;3.05;;;2.50;;
10007;SDS011;5043;41.766;26.204;2024-03-22T06:35:18;2.45;;;2.25;;
10007;SDS011;5043;41.766;26.204;2024-03-22T06:37:43;2.00;;;1.90;;
10007;SDS011;5043;41.766;26.204;2024-03-22T06:40:09;2.10;;;1.95;;
10007;SDS011;5043;41.766;26.204;2024-03-22T06:42:35;3.83;;;3.42;;
10007;SDS011;5043;41.766;26.204;2024-03-22T06:45:00;2.35;;;2.15;;
10007;SDS011;5043;41.766;26.204;2024-03-22T06:47:27;3.08;;;1.95;;
10007;SDS011;5043;41.766;26.204;2024-03-22T06:49:53;2.05;;;1.95;;
10007;SDS011;5043;41.766;26.204;2024-03-22T06:52:18;2.22;;;2.00;;
10007;SDS011;5043;41.766;26.204;2024-03-22T06:54:45;3.72;;;2.60;;
10007;SDS011;5043;41.766;26.204;2024-03-22T06:57:10;2.20;;;2.00;;
10007;SDS011;5043;41.766;26.204;2024-03-22T06:59:36;3.25;;;2.10;;
10007;SDS011;5043;41.766;26.204;2024-03-22T07:02:04;1.60;;;1.50;;
10007;SDS011;5043;41.766;26.204;2024-03-22T07:04:30;3.45;;;1.80;;
10007;SDS011;5043;41.766;26.204;2024-03-22T07:06:56;4.90;;;2.85;;
10007;SDS011;5043;41.766;26.204;2024-03-22T07:09:21;3.75;;;2.88;;
10007;SDS011;5043;41.766;26.204;2024-03-22T07:11:47;2.45;;;2.25;;
10007;SDS011;5043;41.766;26.204;2024-03-22T07:14:12;2.85;;;2.10;;
10007;SDS011;5043;41.766;26.204;2024-03-22T07:16:38;1.92;;;1.77;;
10007;SDS011;5043;41.766;26.204;2024-03-22T07:19:04;1.70;;;1.60;;
10007;SDS011;5043;41.766;26.204;2024-03-22T07:21:29;1.85;;;1.75;;
10007;SDS011;5043;41.766;26.204;2024-03-22T07:23:56;3.00;;;1.98;;
10007;SDS011;5043;41.766;26.204;2024-03-22T07:26:21;1.80;;;1.70;;
10007;SDS011;5043;41.766;26.204;2024-03-22T07:28:47;2.00;;;1.80;;
10007;SDS011;5043;41.766;26.204;2024-03-22T07:31:12;1.95;;;1.85;;
10007;SDS011;5043;41.766;26.204;2024-03-22T07:33:39;4.35;;;1.88;;
10007;SDS011;5043;41.766;26.204;2024-03-22T07:36:05;1.70;;;1.60;;
10007;SDS011;5043;41.766;26.204;2024-03-22T07:38:31;1.58;;;1.48;;
10007;SDS011;5043;41.766;26.204;2024-03-22T07:40:57;1.80;;;1.70;;
10007;SDS011;5043;41.766;26.204;2024-03-22T07:43:23;2.20;;;2.00;;
10007;SDS011;5043;41.766;26.204;2024-03-22T07:45:48;3.58;;;1.67;;
10007;SDS011;5043;41.766;26.204;2024-03-22T07:48:14;1.90;;;1.80;;
10007;SDS011;5043;41.766;26.204;2024-03-22T07:50:40;1.67;;;1.55;;
10007;SDS011;5043;41.766;26.204;2024-03-22T07:53:06;1.67;;;1.58;;
10007;SDS011;5043;41.766;26.204;2024-03-22T07:55:32;1.80;;;1.70;;
10007;SDS011;5043;41.766;26.204;2024-03-22T07:57:58;1.50;;;1.40;;
10007;SDS011;5043;41.766;26.204;2024-03-22T08:00:24;1.30;;;1.20;;
10007;SDS011;5043;41.766;26.204;2024-03-22T08:02:50;1.38;;;1.27;;
10007;SDS011;5043;41.766;26.204;2024-03-22T08:05:17;1.60;;;1.50;;
10007;SDS011;5043;41.766;26.204;2024-03-22T08:07:43;1.60;;;1.50;;
10007;SDS011;5043;41.766;26.204;2024-03-22T08:10:09;1.50;;;1.40;;
10007;SDS011;5043;41.766;26.204;2024-03-22T08:12:35;1.58;;;1.48;;
10007;SDS011;5043;41.766;26.204;2024-03-22T08:15:01;1.27;;;1.17;;
10007;SDS011;5043;41.766;26.204;2024-03-22T08:17:27;1.65;;;1.55;;
10007;SDS011;5043;41.766;26.204;2024-03-22T08:19:53;1.50;;;1.42;;
10007;SDS011;5043;41.766;26.204;2024-03-22T08:22:19;1.40;;;1.30;;
10007;SDS011;5043;41.766;26.204;2024-03-22T08:24:45;1.50;;;1.40;;
10007;SDS011;5043;41.766;26.204;2024-03-22T08:27:10;1.75;;;1.50;;
10007;SDS011;5043;41.766;26.204;2024-03-22T08:29:37;1.83;;;1.73;;
10007;SDS011;5043;41.766;26.204;2024-03-22T08:32:03;2.33;;;2.13;;
10007;SDS011;5043;41.766;26.204;2024-03-22T08:34:29;2.67;;;1.80;;
10007;SDS011;5043;41.766;26.204;2024-03-22T08:36:57;1.58;;;1.48;;
10007;SDS011;5043;41.766;26.204;2024-03-22T08:39:23;1.45;;;1.35;;
10007;SDS011;5043;41.766;26.204;2024-03-22T08:41:49;1.25;;;1.20;;
10007;SDS011;5043;41.766;26.204;2024-03-22T08:44:15;1.40;;;1.30;;
10007;SDS011;5043;41.766;26.204;2024-03-22T08:46:40;2.05;;;1.90;;
10007;SDS011;5043;41.766;26.204;2024-03-22T08:49:06;1.33;;;1.23;;
10007;SDS011;5043;41.766;26.204;2024-03-22T08:51:31;1.50;;;1.40;;
10007;SDS011;5043;41.766;26.204;2024-03-22T08:53:57;2.80;;;2.55;;
10007;SDS011;5043;41.766;26.204;2024-03-22T08:56:22;1.70;;;1.60;;
10007;SDS011;5043;41.766;26.204;2024-03-22T08:58:48;1.67;;;1.55;;
10007;SDS011;5043;41.766;26.204;2024-03-22T09:01:14;1.40;;;1.30;;
10007;SDS011;5043;41.766;26.204;2024-03-22T09:03:40;1.40;;;1.30;;
10007;SDS011;5043;41.766;26.204;2024-03-22T09:06:05;1.52;;;1.42;;
10007;SDS011;5043;41.766;26.204;2024-03-22T09:08:31;1.85;;;1.75;;
10007;SDS011;5043;41.766;26.204;2024-03-22T09:10:58;1.92;;;1.70;;
10007;SDS011;5043;41.766;26.204;2024-03-22T09:13:24;1.55;;;1.40;;
10007;SDS011;5043;41.766;26.204;2024-03-22T09:15:55;1.58;;;1.27;;
10007;SDS011;5043;41.766;26.204;2024-03-22T09:18:22;1.50;;;1.40;;
10007;SDS011;5043;41.766;26.204;2024-03-22T09:20:47;2.00;;;1.85;;
10007;SDS011;5043;41.766;26.204;2024-03-22T09:23:13;1.60;;;1.50;;
10007;SDS011;5043;41.766;26.204;2024-03-22T09:25:38;1.30;;;1.20;;
10007;SDS011;5043;41.766;26.204;2024-03-22T09:28:03;1.13;;;1.10;;
10007;SDS011;5043;41.766;26.204;2024-03-22T09:30:29;1.45;;;1.35;;
10007;SDS011;5043;41.766;26.204;2024-03-22T09:32:55;1.60;;;1.50;;
10007;SDS011;5043;41.766;26.204;2024-03-22T09:35:20;1.60;;;1.50;;
10007;SDS011;5043;41.766;26.204;2024-03-22T09:37:46;1.83;;;1.30;;
10007;SDS011;5043;41.766;26.204;2024-03-22T09:40:12;2.70;;;1.38;;
10007;SDS011;5043;41.766;26.204;2024-03-22T09:42:38;2.50;;;1.52;;
10007;SDS011;5043;41.766;26.204;2024-03-22T09:45:07;1.33;;;1.23;;
10007;SDS011;5043;41.766;26.204;2024-03-22T09:47:33;3.75;;;1.30;;
10007;SDS011;5043;41.766;26.204;2024-03-22T09:50:00;1.50;;;1.40;;
10007;SDS011;5043;41.766;26.204;2024-03-22T09:52:28;1.40;;;1.30;;
10007;SDS011;5043;41.766;26.204;2024-03-22T09:54:55;1.63;;;1.30;;
10007;SDS011;5043;41.766;26.204;2024-03-22T09:57:20;1.42;;;1.33;;
10007;SDS011;5043;41.766;26.204;2024-03-22T09:59:47;1.60;;;1.50;;
10007;SDS011;5043;41.766;26.204;2024-03-22T10:02:13;1.50;;;1.40;;
10007;SDS011;5043;41.766;26.204;2024-03-22T10:04:40;1.30;;;1.20;;
10007;SDS011;5043;41.766;26.204;2024-03-22T10:07:06;1.30;;;1.20;;
10007;SDS011;5043;41.766;26.204;2024-03-22T10:09:33;2.58;;;1.60;;
10007;SDS011;5043;41.766;26.204;2024-03-22T10:11:59;2.35;;;2.15;;
10007;SDS011;5043;41.766;26.204;2024-03-22T10:14:24;1.25;;;1.15;;
10007;SDS011;5043;41.766;26.204;2024-03-22T10:16:51;1.48;;;1.38;;
10007;SDS011;5043;41.766;26.204;2024-03-22T10:19:20;0.80;;;0.80;;
10007;SDS011;5043;41.766;26.204;2024-03-22T10:21:47;1.55;;;1.10;;
10007;SDS011;5043;41.766;26.204;2024-03-22T10:24:13;0.93;;;0.93;;
10007;SDS011;5043;41.766;26.204;2024-03-22T10:26:39;1.40;;;1.30;;
10007;SDS011;5043;41.766;26.204;2024-03-22T10:29:06;1.08;;;1.08;;
10007;SDS011;5043;41.766;26.204;2024-03-22T10:31:33;1.35;;;1.25;;
10007;SDS011;5043;41.766;26.204;2024-03-22T10:34:00;1.30;;;1.20;;
10007;SDS011;5043;41.766;26.204;2024-03-22T10:36:30;1.00;;;1.00;;
10007;SDS011;5043;41.766;26.204;2024-03-22T10:38:57;1.85;;;1.17;;
10007;SDS011;5043;41.766;26.204;2024-03-22T10:41:25;1.20;;;1.10;;
10007;SDS011;5043;41.766;26.204;2024-03-22T10:43:51;1.27;;;1.17;;
10007;SDS011;5043;41.766;26.204;2024-03-22T10:46:17;2.45;;;1.25;;
10007;SDS011;5043;41.766;26.204;2024-03-22T10:48:45;1.52;;;1.17;;
10007;SDS011;5043;41.766;26.204;2024-03-22T10:51:11;2.45;;;1.55;;
10007;SDS011;5043;41.766;26.204;2024-03-22T10:53:40;2.33;;;2.13;;
10007;SDS011;5043;41.766;26.204;2024-03-22T10:56:07;2.22;;;2.03;;
10007;SDS011;5043;41.766;26.204;2024-03-22T10:58:34;1.45;;;1.35;;
10007;SDS011;5043;41.766;26.204;2024-03-22T11:01:05;4.55;;;2.42;;
10007;SDS011;5043;41.766;26.204;2024-03-22T11:03:31;2.17;;;1.98;;
10007;SDS011;5043;41.766;26.204;2024-03-22T11:05:59;1.42;;;1.33;;
10007;SDS011;5043;41.766;26.204;2024-03-22T11:08:25;1.23;;;1.13;;
10007;SDS011;5043;41.766;26.204;2024-03-22T11:10:52;1.00;;;1.00;;
10007;SDS011;5043;41.766;26.204;2024-03-22T11:13:18;2.10;;;1.90;;
10007;SDS011;5043;41.766;26.204;2024-03-22T11:15:47;1.85;;;1.33;;
10007;SDS011;5043;41.766;26.204;2024-03-22T11:18:16;1.10;;;1.10;;
10007;SDS011;5043;41.766;26.204;2024-03-22T11:20:43;1.05;;;1.05;;
10007;SDS011;5043;41.766;26.204;2024-03-22T11:23:12;1.70;;;1.60;;
10007;SDS011;5043;41.766;26.204;2024-03-22T11:25:38;2.35;;;2.15;;
10007;SDS011;5043;41.766;26.204;2024-03-22T11:28:03;1.42;;;1.30;;
10007;SDS011;5043;41.766;26.204;2024-03-22T11:30:29;2.05;;;1.38;;
10007;SDS011;5043;41.766;26.204;2024-03-22T11:32:57;0.80;;;0.80;;
10007;SDS011;5043;41.766;26.204;2024-03-22T11:35:22;1.33;;;1.33;;
10007;SDS011;5043;41.766;26.204;2024-03-22T11:37:49;0.90;;;0.90;;
10007;SDS011;5043;41.766;26.204;2024-03-22T11:40:16;1.35;;;1.10;;
10007;SDS011;5043;41.766;26.204;2024-03-22T11:42:42;1.65;;;1.50;;
10007;SDS011;5043;41.766;26.204;2024-03-22T11:45:12;1.60;;;1.50;;
10007;SDS011;5043;41.766;26.204;2024-03-22T11:47:40;1.35;;;1.25;;
10007;SDS011;5043;41.766;26.204;2024-03-22T11:50:06;1.75;;;1.42;;
10007;SDS011;5043;41.766;26.204;2024-03-22T11:52:32;1.52;;;1.10;;
10007;SDS011;5043;41.766;26.204;2024-03-22T11:54:58;1.00;;;0.85;;
10007;SDS011;5043;41.766;26.204;2024-03-22T11:57:23;0.93;;;0.93;;
10007;SDS011;5043;41.766;26.204;2024-03-22T11:59:50;1.63;;;1.20;;
10007;SDS011;5043;41.766;26.204;2024-03-22T12:02:16;1.10;;;1.10;;
10007;SDS011;5043;41.766;26.204;2024-03-22T12:04:42;0.80;;;0.80;;
10007;SDS011;5043;41.766;26.204;2024-03-22T12:07:11;1.00;;;1.00;;
10007;SDS011;5043;41.766;26.204;2024-03-22T12:09:38;1.15;;;1.15;;
10007;SDS011;5043;41.766;26.204;2024-03-22T12:12:06;0.90;;;0.90;;
10007;SDS011;5043;41.766;26.204;2024-03-22T12:14:34;1.20;;;1.10;;
10007;SDS011;5043;41.766;26.204;2024-03-22T12:17:01;1.10;;;1.10;;
10007;SDS011;5043;41.766;26.204;2024-03-22T12:19:28;1.02;;;1.02;;
10007;SDS011;5043;41.766;26.204;2024-03-22T12:21:54;1.60;;;1.50;;
10007;SDS011;5043;41.766;26.204;2024-03-22T12:24:20;1.95;;;1.77;;
10007;SDS011;5043;41.766;26.204;2024-03-22T12:26:47;2.75;;;1.00;;
10007;SDS011;5043;41.766;26.204;2024-03-22T12:29:14;1.25;;;1.25;;
10007;SDS011;5043;41.766;26.204;2024-03-22T12:31:40;1.05;;;0.98;;
10007;SDS011;5043;41.766;26.204;2024-03-22T12:34:06;0.90;;;0.90;;
10007;SDS011;5043;41.766;26.204;2024-03-22T12:36:32;1.40;;;1.27;;
10007;SDS011;5043;41.766;26.204;2024-03-22T12:38:58;0.90;;;0.90;;
10007;SDS011;5043;41.766;26.204;2024-03-22T12:41:24;1.25;;;1.17;;
10007;SDS011;5043;41.766;26.204;2024-03-22T12:43:51;1.30;;;1.20;;
10007;SDS011;5043;41.766;26.204;2024-03-22T12:46:16;1.85;;;1.75;;
10007;SDS011;5043;41.766;26.204;2024-03-22T12:48:42;1.63;;;1.52;;
10007;SDS011;5043;41.766;26.204;2024-03-22T12:51:08;1.58;;;1.48;;
10007;SDS011;5043;41.766;26.204;2024-03-22T12:53:33;1.60;;;1.50;;
10007;SDS011;5043;41.766;26.204;2024-03-22T12:55:59;5.18;;;1.40;;
10007;SDS011;5043;41.766;26.204;2024-03-22T12:58:25;1.30;;;1.30;;
10007;SDS011;5043;41.766;26.204;2024-03-22T13:00:50;1.75;;;1.20;;
10007;SDS011;5043;41.766;26.204;2024-03-22T13:03:16;1.35;;;1.35;;
10007;SDS011;5043;41.766;26.204;2024-03-22T13:05:41;1.60;;;1.50;;
10007;SDS011;5043;41.766;26.204;2024-03-22T13:08:07;1.85;;;1.73;;
10007;SDS011;5043;41.766;26.204;2024-03-22T13:10:33;3.17;;;1.83;;
10007;SDS011;5043;41.766;26.204;2024-03-22T13:12:59;1.42;;;1.33;;
10007;SDS011;5043;41.766;26.204;2024-03-22T13:15:24;1.40;;;1.30;;
10007;SDS011;5043;41.766;26.204;2024-03-22T13:17:50;1.60;;;1.50;;
10007;SDS011;5043;41.766;26.204;2024-03-22T13:20:17;3.17;;;2.97;;
10007;SDS011;5043;41.766;26.204;2024-03-22T13:22:43;2.22;;;1.70;;
10007;SDS011;5043;41.766;26.204;2024-03-22T13:25:09;1.40;;;1.30;;
10007;SDS011;5043;41.766;26.204;2024-03-22T13:27:36;1.60;;;1.50;;
10007;SDS011;5043;41.766;26.204;2024-03-22T13:30:05;1.60;;;1.50;;
10007;SDS011;5043;41.766;26.204;2024-03-22T13:32:35;1.38;;;1.23;;
10007;SDS011;5043;41.766;26.204;2024-03-22T13:35:04;1.52;;;1.30;;
10007;SDS011;5043;41.766;26.204;2024-03-22T13:37:30;1.50;;;1.40;;
10007;SDS011;5043;41.766;26.204;2024-03-22T13:39:56;1.30;;;1.20;;
10007;SDS011;5043;41.766;26.204;2024-03-22T13:42:22;1.70;;;1.60;;
10007;SDS011;5043;41.766;26.204;2024-03-22T13:44:48;3.35;;;1.23;;
10007;SDS011;5043;41.766;26.204;2024-03-22T13:47:13;1.67;;;1.58;;
10007;SDS011;5043;41.766;26.204;2024-03-22T13:49:39;1.38;;;1.30;;
10007;SDS011;5043;41.766;26.204;2024-03-22T13:52:08;1.10;;;1.10;;
10007;SDS011;5043;41.766;26.204;2024-03-22T13:54:34;1.05;;;1.00;;
10007;SDS011;5043;41.766;26.204;2024-03-22T13:57:00;1.38;;;1.27;;
10007;SDS011;5043;41.766;26.204;2024-03-22T13:59:26;4.20;;;1.58;;
10007;SDS011;5043;41.766;26.204;2024-03-22T14:01:51;1.40;;;1.30;;
10007;SDS011;5043;41.766;26.204;2024-03-22T14:04:18;1.52;;;1.42;;
10007;SDS011;5043;41.766;26.204;2024-03-22T14:06:47;1.35;;;1.25;;
10007;SDS011;5043;41.766;26.204;2024-03-22T14:09:12;1.30;;;1.20;;
10007;SDS011;5043;41.766;26.204;2024-03-22T14:11:41;1.20;;;1.10;;
10007;SDS011;5043;41.766;26.204;2024-03-22T14:14:12;2.50;;;1.60;;
10007;SDS011;5043;41.766;26.204;2024-03-22T14:16:38;1.50;;;1.40;;
10007;SDS011;5043;41.766;26.204;2024-03-22T14:19:04;3.67;;;1.33;;
10007;SDS011;5043;41.766;26.204;2024-03-22T14:21:29;1.88;;;1.48;;
10007;SDS011;5043;41.766;26.204;2024-03-22T14:23:55;1.40;;;1.30;;
10007;SDS011;5043;41.766;26.204;2024-03-22T14:26:20;2.65;;;1.88;;
10007;SDS011;5043;41.766;26.204;2024-03-22T14:28:46;2.60;;;1.60;;
10007;SDS011;5043;41.766;26.204;2024-03-22T14:31:12;1.40;;;1.00;;
10007;SDS011;5043;41.766;26.204;2024-03-22T14:33:39;0.90;;;0.90;;
10007;SDS011;5043;41.766;26.204;2024-03-22T14:36:05;1.55;;;1.45;;
10007;SDS011;5043;41.766;26.204;2024-03-22T14:38:32;0.90;;;0.90;;
10007;SDS011;5043;41.766;26.204;2024-03-22T14:40:58;1.60;;;1.50;;